Mount Air, Ohio
Current Conditions -  °F | °C
As of 2:53 AM on Monday 26 Jan 2015 (Local Time) from KOSU Reporting Station
Light Snow Light Snow  
Wind Chill:   Ceiling: 1700
Heat Index: 22°   Visibility: 1.2mi
Dew Point: 18°   Wind: 15mph
Humidity: 85%   Direction: 10°N
Pressure: 29.75"   Gusts: NA
Location:  40.0994°N, 83.0166°W
Report Text: KOSU 260753Z AUTO 01013KT 1 1/4SM -SN BR OVC017 M06/M08 A2975 RMK AO2 SLP083 P0000 T10561078
Loading
Personal Weather Stations






























Interactive Weather Map New forecast layout! Learn more

10-Day Weather Forecast

Advertisements
Track Severe Weather on mobile